Time;durP1;ratioP1;P1;durP2;ratioP2;P2;SDS_P1;SDS_P2;PMS_P1;PMS_P2;Temp;Humidity;BMP_temperature;BMP_pressure;BME280_temperature;BME280_humidity;BME280_pressure;Samples;Min_cycle;Max_cycle;Signal;HPM_P1;HPM_P2
2022/04/15 00:01:30;;;;;;;34.98;15.78;;;;;;;4.39;60.82;101688.09;1773879;80;27480;-60
2022/04/15 00:03:58;;;;;;;41.42;15.85;;;;;;;4.34;60.23;101687.44;1781415;80;25742;-60
2022/04/15 00:06:25;;;;;;;37.95;16.65;;;;;;;4.31;60.27;101684.45;1783105;79;25777;-60
2022/04/15 00:08:52;;;;;;;35.33;16.67;;;;;;;4.32;60.63;101689.30;1783092;80;26147;-60
2022/04/15 00:11:19;;;;;;;47.30;17.85;;;;;;;4.28;60.73;101685.92;1783286;79;26255;-60
2022/04/15 00:13:47;;;;;;;36.10;17.02;;;;;;;4.24;60.72;101679.03;1781522;80;27445;-59
2022/04/15 00:16:15;;;;;;;39.55;16.45;;;;;;;4.22;60.57;101687.55;1738485;81;25770;-59
2022/04/15 00:18:44;;;;;;;34.50;15.93;;;;;;;4.22;60.57;101684.89;1739258;82;25643;-60
2022/04/15 00:21:11;;;;;;;40.48;15.85;;;;;;;4.19;60.46;101687.23;1780872;80;26815;-60
2022/04/15 00:23:38;;;;;;;39.18;15.88;;;;;;;4.18;60.58;101681.96;1781046;80;25773;-60
2022/04/15 00:26:05;;;;;;;37.95;16.77;;;;;;;4.15;60.33;101678.98;1780799;80;28237;-59
2022/04/15 00:28:32;;;;;;;40.52;14.55;;;;;;;4.15;60.25;101679.47;1780945;80;25709;-59
2022/04/15 00:30:59;;;;;;;38.02;14.90;;;;;;;4.14;60.82;101678.58;1780459;80;25783;-59
2022/04/15 00:33:26;;;;;;;34.03;14.35;;;;;;;4.14;60.84;101677.25;1780927;80;25945;-59
2022/04/15 00:35:54;;;;;;;38.25;15.95;;;;;;;4.14;60.60;101672.41;1780894;79;25813;-60
2022/04/15 00:38:20;;;;;;;44.48;16.20;;;;;;;4.15;61.05;101670.14;1780898;80;27306;-59
2022/04/15 00:40:47;;;;;;;32.15;14.18;;;;;;;4.16;61.11;101671.88;1780773;79;25772;-59
2022/04/15 00:43:14;;;;;;;43.33;15.05;;;;;;;4.18;61.38;101665.53;1780917;80;26162;-59
2022/04/15 00:45:41;;;;;;;39.35;15.00;;;;;;;4.18;61.46;101658.88;1780881;79;27522;-60
2022/04/15 00:48:11;;;;;;;34.23;14.30;;;;;;;4.22;61.62;101660.92;1781011;79;25726;-59
2022/04/15 00:50:37;;;;;;;33.80;14.00;;;;;;;4.23;61.43;101654.66;1781156;80;27426;-59
2022/04/15 00:53:08;;;;;;;43.75;15.18;;;;;;;4.21;61.20;101656.05;1780732;79;25752;-60
2022/04/15 00:55:38;;;;;;;40.33;15.20;;;;;;;4.22;61.41;101650.27;1779650;80;25788;-60
2022/04/15 00:58:07;;;;;;;31.35;14.20;;;;;;;4.20;61.37;101645.02;1776831;80;26770;-60
2022/04/15 01:00:37;;;;;;;38.05;15.03;;;;;;;4.17;61.32;101643.83;1769212;81;25751;-60
2022/04/15 01:03:06;;;;;;;35.68;15.75;;;;;;;4.14;61.28;101637.30;1774432;80;27474;-60
2022/04/15 01:05:33;;;;;;;42.90;16.45;;;;;;;4.11;61.43;101636.59;1780940;80;25863;-59
2022/04/15 01:08:04;;;;;;;38.98;16.85;;;;;;;4.12;61.37;101640.98;1780786;80;26650;-59
2022/04/15 01:10:33;;;;;;;33.45;15.03;;;;;;;4.05;61.37;101634.63;1738849;82;26219;-60
2022/04/15 01:13:02;;;;;;;32.50;15.20;;;;;;;4.06;61.36;101632.81;1694344;83;25979;-59
2022/04/15 01:15:29;;;;;;;33.53;14.65;;;;;;;4.02;61.34;101636.09;1725279;82;27502;-60
2022/04/15 01:17:56;;;;;;;42.13;17.50;;;;;;;3.98;61.02;101625.20;1738505;82;25580;-60
2022/04/15 01:20:25;;;;;;;36.45;15.38;;;;;;;3.94;61.18;101627.60;1738720;82;25659;-58
2022/04/15 01:23:12;;;;;;;45.10;15.65;;;;;;;3.89;60.95;101628.30;1738548;82;26084;-59
2022/04/15 01:25:39;;;;;;;42.48;15.25;;;;;;;3.85;60.99;101620.93;1738465;81;25666;-59
2022/04/15 01:28:07;;;;;;;36.95;15.93;;;;;;;3.80;61.13;101623.41;1738646;81;27436;-59
2022/04/15 01:30:34;;;;;;;42.13;15.18;;;;;;;3.74;61.07;101622.73;1738410;81;26120;-59
2022/04/15 01:33:02;;;;;;;40.73;15.70;;;;;;;3.70;61.15;101622.50;1738756;81;25649;-59
2022/04/15 01:35:29;;;;;;;38.15;15.48;;;;;;;3.67;61.07;101618.64;1738380;82;26216;-60
2022/04/15 01:37:59;;;;;;;31.27;14.70;;;;;;;3.65;60.81;101618.32;1738499;82;25648;-59
2022/04/15 01:40:25;;;;;;;36.75;14.95;;;;;;;3.62;60.71;101622.44;1738746;81;28437;-59
2022/04/15 01:42:53;;;;;;;38.00;15.72;;;;;;;3.59;60.64;101614.14;1738616;82;25474;-59
2022/04/15 01:45:20;;;;;;;34.78;15.65;;;;;;;3.57;61.02;101619.54;1738429;81;25708;-60
2022/04/15 01:47:47;;;;;;;45.17;15.30;;;;;;;3.48;60.95;101618.62;1738366;82;26125;-59
2022/04/15 01:50:14;;;;;;;39.53;14.47;;;;;;;3.45;61.48;101609.45;1738544;82;25709;-59
2022/04/15 01:52:41;;;;;;;35.17;14.75;;;;;;;3.42;61.31;101609.13;1738964;81;27606;-59
2022/04/15 01:55:09;;;;;;;34.55;13.48;;;;;;;3.41;61.53;101615.82;1738545;81;25844;-59
2022/04/15 01:57:36;;;;;;;44.35;14.07;;;;;;;3.41;61.84;101616.70;1738746;81;25704;-59
2022/04/15 02:00:05;;;;;;;41.18;14.73;;;;;;;3.39;62.01;101614.57;1738614;81;26086;-59
2022/04/15 02:02:34;;;;;;;45.95;14.78;;;;;;;3.38;62.10;101607.52;1738528;81;25716;-59
2022/04/15 02:05:01;;;;;;;37.30;15.10;;;;;;;3.38;62.41;101606.19;1738468;81;27478;-59
2022/04/15 02:07:27;;;;;;;43.20;14.25;;;;;;;3.40;62.40;101600.34;1738875;81;25769;-59
2022/04/15 02:09:55;;;;;;;33.63;13.48;;;;;;;3.43;62.39;101599.34;1738660;82;25556;-60
2022/04/15 02:12:21;;;;;;;34.65;14.85;;;;;;;3.47;62.32;101595.61;1738845;81;27040;-60
2022/04/15 02:14:48;;;;;;;32.10;14.50;;;;;;;3.54;62.37;101593.55;1738493;81;25606;-60
2022/04/15 02:17:15;;;;;;;30.08;13.38;;;;;;;3.56;62.27;101594.31;1738522;82;26755;-60
2022/04/15 02:19:41;;;;;;;32.55;13.65;;;;;;;3.55;62.28;101591.25;1738553;81;25634;-60
2022/04/15 02:22:09;;;;;;;38.45;14.60;;;;;;;3.56;62.19;101594.31;1738449;81;25457;-60
2022/04/15 02:24:36;;;;;;;36.55;16.05;;;;;;;3.55;61.81;101591.25;1738387;82;26088;-60
2022/04/15 02:27:04;;;;;;;36.93;15.58;;;;;;;3.54;61.70;101586.41;1738606;81;25753;-60
2022/04/15 02:29:32;;;;;;;40.28;15.63;;;;;;;3.54;61.58;101589.08;1738686;81;28270;-58
2022/04/15 02:31:59;;;;;;;33.90;15.13;;;;;;;3.48;61.35;101577.39;1738160;81;25963;-58
2022/04/15 02:34:26;;;;;;;38.42;16.15;;;;;;;3.43;61.58;101582.05;1738600;82;25667;-58
2022/04/15 02:36:53;;;;;;;51.35;16.27;;;;;;;3.37;61.79;101579.19;1738554;82;26267;-58
2022/04/15 02:39:19;;;;;;;33.40;17.07;;;;;;;3.31;61.65;101587.45;1738317;81;25765;-57
2022/04/15 02:41:46;;;;;;;32.63;14.83;;;;;;;3.26;61.62;101588.14;1738548;81;27499;-58
2022/04/15 02:44:13;;;;;;;32.90;14.07;;;;;;;3.15;62.21;101583.28;1738666;82;25772;-59
2022/04/15 02:46:41;;;;;;;41.83;14.13;;;;;;;3.08;61.85;101580.05;1738658;82;25824;-58
2022/04/15 02:49:08;;;;;;;40.00;14.07;;;;;;;3.04;61.97;101575.79;1738558;81;26930;-58
2022/04/15 02:51:36;;;;;;;40.17;14.65;;;;;;;2.99;62.13;101581.79;1738514;81;26575;-58
2022/04/15 02:54:03;;;;;;;30.65;13.40;;;;;;;2.95;62.43;101574.42;1738525;81;27486;-58
2022/04/15 02:56:30;;;;;;;34.50;13.70;;;;;;;2.93;62.61;101580.70;1738397;81;25867;-58
2022/04/15 02:58:57;;;;;;;39.53;14.28;;;;;;;2.88;62.62;101580.91;1738602;81;25828;-59
2022/04/15 03:01:24;;;;;;;42.58;13.80;;;;;;;2.89;62.66;101581.78;1738523;81;26137;-58
2022/04/15 03:03:51;;;;;;;36.75;14.38;;;;;;;2.85;63.01;101581.06;1738553;82;25704;-59
2022/04/15 03:06:18;;;;;;;42.50;13.75;;;;;;;2.79;63.06;101575.54;1738373;82;27470;-59
2022/04/15 03:08:45;;;;;;;30.30;13.35;;;;;;;2.75;63.57;101575.26;1738484;82;25746;-59
2022/04/15 03:11:11;;;;;;;34.03;14.38;;;;;;;2.77;63.67;101578.72;1738326;82;25450;-58
2022/04/15 03:13:38;;;;;;;27.80;13.53;;;;;;;2.84;63.96;101576.67;1739018;81;26540;-58
2022/04/15 03:16:07;;;;;;;41.13;16.17;;;;;;;2.89;63.59;101579.98;1740601;82;25733;-58
2022/04/15 03:18:33;;;;;;;32.65;13.18;;;;;;;2.94;63.87;101570.48;1716628;83;27472;-59
2022/04/15 03:21:00;;;;;;;40.05;13.78;;;;;;;2.98;63.75;101575.59;1739838;82;25702;-59
2022/04/15 03:23:27;;;;;;;34.20;12.78;;;;;;;3.02;63.52;101574.98;1740385;81;25786;-59
2022/04/15 03:25:54;;;;;;;38.28;14.73;;;;;;;3.03;63.30;101577.20;1716643;83;26189;-59
2022/04/15 03:28:21;;;;;;;40.83;14.63;;;;;;;3.03;63.19;101577.20;1740427;82;25761;-59
2022/04/15 03:30:48;;;;;;;28.70;13.72;;;;;;;2.98;63.16;101578.73;1740641;82;27633;-59
2022/04/15 03:33:15;;;;;;;40.73;14.18;;;;;;;2.98;62.94;101574.74;1716804;83;25879;-59
2022/04/15 03:35:42;;;;;;;28.77;13.45;;;;;;;2.96;62.87;101571.28;1740356;82;25689;-58
2022/04/15 03:38:08;;;;;;;27.17;12.80;;;;;;;2.94;62.74;101578.00;1740326;82;27218;-59
2022/04/15 03:40:35;;;;;;;31.33;14.35;;;;;;;2.92;62.73;101582.52;1716723;83;25748;-59
2022/04/15 03:43:04;;;;;;;31.37;12.70;;;;;;;2.91;62.55;101585.25;1740398;82;27483;-59
2022/04/15 03:45:31;;;;;;;32.15;13.32;;;;;;;2.88;62.68;101584.05;1740363;82;25827;-59
2022/04/15 03:47:58;;;;;;;25.72;12.07;;;;;;;2.84;62.65;101583.31;1716919;82;25740;-59
2022/04/15 03:50:25;;;;;;;31.37;12.53;;;;;;;2.84;62.67;101590.41;1716689;83;27080;-59
2022/04/15 03:52:53;;;;;;;30.80;12.90;;;;;;;2.86;63.27;101579.25;1716693;82;25519;-59
2022/04/15 03:55:24;;;;;;;26.15;12.28;;;;;;;2.88;63.29;101580.05;1716834;83;27478;-59
2022/04/15 03:57:51;;;;;;;27.82;12.88;;;;;;;2.93;63.35;101580.26;1716992;82;25801;-60
2022/04/15 04:00:22;;;;;;;33.65;12.68;;;;;;;2.97;63.31;101580.98;1716873;83;25575;-60
2022/04/15 04:02:52;;;;;;;25.08;11.68;;;;;;;2.96;63.38;101574.78;1716440;83;26907;-59
2022/04/15 04:05:21;;;;;;;28.35;13.00;;;;;;;3.01;63.63;101578.57;1715319;83;25826;-59
2022/04/15 04:07:48;;;;;;;35.88;12.73;;;;;;;3.04;63.63;101582.44;1715540;83;28199;-59
2022/04/15 04:10:16;;;;;;;32.20;12.90;;;;;;;3.07;63.73;101580.10;1715248;83;25749;-59
2022/04/15 04:12:44;;;;;;;30.95;13.80;;;;;;;3.11;63.82;101582.56;1715208;83;25781;-60
2022/04/15 04:15:13;;;;;;;27.67;12.43;;;;;;;3.17;63.95;101585.41;1715109;83;26049;-59
2022/04/15 04:17:40;;;;;;;31.90;12.88;;;;;;;3.20;64.26;101585.73;1695830;83;26133;-60
2022/04/15 04:20:09;;;;;;;30.55;12.47;;;;;;;3.22;63.99;101586.54;1715616;83;27533;-60
2022/04/15 04:22:38;;;;;;;32.95;13.90;;;;;;;3.27;64.19;101584.08;1715437;83;26077;-60
2022/04/15 04:25:11;;;;;;;28.47;13.15;;;;;;;3.32;64.26;101583.88;1715331;83;25845;-60
2022/04/15 04:27:43;;;;;;;29.05;12.63;;;;;;;3.38;64.30;101581.41;1715501;83;27386;-60
2022/04/15 04:30:15;;;;;;;24.70;11.85;;;;;;;3.43;63.76;101584.25;1715202;83;25826;-59
2022/04/15 04:32:52;;;;;;;28.38;13.22;;;;;;;3.40;63.74;101572.89;1715215;83;28337;-60
2022/04/15 04:35:18;;;;;;;745.55;516.45;;;;;;;3.38;63.44;101579.59;1712168;83;25824;-60
2022/04/15 04:37:46;;;;;;;59.70;34.70;;;;;;;3.41;63.76;101581.24;1707754;83;25671;-59
2022/04/15 04:40:14;;;;;;;25.72;14.65;;;;;;;3.48;64.09;101584.50;1707704;83;26206;-60
2022/04/15 04:42:41;;;;;;;29.10;13.93;;;;;;;3.55;63.80;101581.94;1707446;83;25671;-59
2022/04/15 04:45:14;;;;;;;36.35;14.50;;;;;;;3.56;63.43;101575.69;1708043;83;27455;-59
2022/04/15 04:47:44;;;;;;;37.98;14.38;;;;;;;3.57;63.24;101576.97;1710367;83;25734;-59
2022/04/15 04:50:11;;;;;;;33.92;14.35;;;;;;;3.62;63.25;101581.20;1715028;83;25469;-59
2022/04/15 04:52:40;;;;;;;31.02;13.48;;;;;;;3.65;63.54;101586.39;1715286;83;26618;-59
2022/04/15 04:55:08;;;;;;;38.20;15.38;;;;;;;3.69;63.79;101581.30;1715295;83;26042;-60
2022/04/15 04:57:38;;;;;;;49.90;15.85;;;;;;;3.71;63.68;101578.99;1715252;83;27473;-59
2022/04/15 05:00:06;;;;;;;48.75;24.23;;;;;;;3.75;63.56;101588.54;1716565;82;25795;-59
2022/04/15 05:02:33;;;;;;;41.53;18.52;;;;;;;3.81;63.90;101583.88;1716500;82;25816;-59
2022/04/15 05:05:00;;;;;;;54.70;16.70;;;;;;;3.89;63.72;101586.56;1714911;83;27083;-58
2022/04/15 05:07:27;;;;;;;40.28;18.10;;;;;;;3.96;63.47;101578.27;1715166;83;25761;-58
2022/04/15 05:09:54;;;;;;;39.45;18.60;;;;;;;4.01;63.40;101579.78;1715219;83;27613;-58
2022/04/15 05:12:21;;;;;;;53.17;17.85;;;;;;;4.07;63.30;101574.19;1715250;83;26139;-58
2022/04/15 05:14:48;;;;;;;42.43;16.62;;;;;;;4.16;63.24;101580.00;1711555;83;25804;-56
2022/04/15 05:17:16;;;;;;;51.25;19.25;;;;;;;4.21;63.18;101580.14;1771318;81;26754;-59
2022/04/15 05:19:44;;;;;;;55.40;19.75;;;;;;;4.28;63.15;101580.70;1770855;79;25518;-58
2022/04/15 05:22:12;;;;;;;51.15;19.45;;;;;;;4.34;62.97;101578.22;1771141;79;28259;-59
2022/04/15 05:24:39;;;;;;;60.35;24.07;;;;;;;4.41;62.77;101580.95;1770912;81;25724;-59
2022/04/15 05:27:07;;;;;;;54.67;22.90;;;;;;;4.49;62.57;101576.11;1766608;80;25693;-60
2022/04/15 05:29:35;;;;;;;64.30;25.55;;;;;;;4.57;62.45;101578.40;1765100;80;26100;-60
2022/04/15 05:32:03;;;;;;;51.58;24.95;;;;;;;4.66;62.33;101579.75;1771925;80;25684;-60
2022/04/15 05:34:30;;;;;;;55.85;23.32;;;;;;;4.75;62.18;101575.25;1767010;80;27510;-60
2022/04/15 05:36:57;;;;;;;48.17;17.87;;;;;;;4.84;62.03;101576.59;1740761;80;25691;-59
2022/04/15 05:39:24;;;;;;;48.25;19.05;;;;;;;4.93;61.92;101577.45;1771021;80;25781;-60
2022/04/15 05:41:51;;;;;;;50.25;18.25;;;;;;;5.03;61.73;101569.83;1781336;80;26322;-59
2022/04/15 05:44:18;;;;;;;51.28;16.57;;;;;;;5.10;61.55;101573.03;1759233;79;26138;-59
2022/04/15 05:46:44;;;;;;;39.25;16.12;;;;;;;5.20;61.40;101571.61;1771165;80;27445;-59
2022/04/15 05:49:16;;;;;;;40.38;16.23;;;;;;;5.28;61.29;101573.39;1770780;81;25736;-58
2022/04/15 05:51:47;;;;;;;46.80;17.82;;;;;;;5.36;61.21;101566.33;1770916;80;25688;-59
2022/04/15 05:54:13;;;;;;;54.20;15.53;;;;;;;5.45;61.23;101559.61;1754994;80;26910;-59
2022/04/15 05:56:40;;;;;;;41.50;15.63;;;;;;;5.55;61.27;101558.16;1771214;80;25714;-59
2022/04/15 05:59:08;;;;;;;35.63;15.45;;;;;;;5.65;61.28;101561.17;1759588;80;28884;-58
2022/04/15 06:01:35;;;;;;;39.58;16.17;;;;;;;5.74;61.16;101558.00;1740146;81;25863;-59
2022/04/15 06:04:03;;;;;;;43.35;14.83;;;;;;;5.87;61.22;101553.32;1758031;81;25728;-58
2022/04/15 06:06:29;;;;;;;36.30;15.13;;;;;;;5.99;61.19;101551.75;1760928;81;26108;-59
2022/04/15 06:08:57;;;;;;;33.78;15.85;;;;;;;6.10;61.09;101549.38;1769667;79;25812;-59
2022/04/15 06:11:25;;;;;;;41.77;13.55;;;;;;;6.20;60.95;101548.36;1772448;80;28320;-58
2022/04/15 06:13:52;;;;;;;28.55;12.18;;;;;;;6.30;60.85;101549.55;1772689;79;25757;-59
2022/04/15 06:16:20;;;;;;;26.05;11.50;;;;;;;6.40;60.63;101545.88;1780684;80;25711;-59
2022/04/15 06:18:48;;;;;;;38.92;12.55;;;;;;;6.52;60.22;101546.97;1753724;80;26123;-59
2022/04/15 06:21:14;;;;;;;27.10;11.88;;;;;;;6.63;59.87;101537.84;1748575;82;25862;-60
2022/04/15 06:23:41;;;;;;;39.67;11.05;;;;;;;6.74;59.57;101527.83;1748234;82;28202;-59
2022/04/15 06:26:08;;;;;;;30.17;11.97;;;;;;;6.83;59.17;101528.61;1748027;82;27256;-59
2022/04/15 06:28:35;;;;;;;45.03;15.28;;;;;;;6.96;59.03;101525.16;1772268;80;25475;-59
2022/04/15 06:31:02;;;;;;;40.80;16.60;;;;;;;7.05;58.86;101520.12;1780700;80;26090;-59
2022/04/15 06:33:29;;;;;;;35.23;16.65;;;;;;;7.20;58.56;101520.12;1780739;79;26090;-59
2022/04/15 06:35:55;;;;;;;58.78;21.17;;;;;;;7.31;58.57;101527.47;1780766;80;27485;-58
2022/04/15 06:38:22;;;;;;;60.28;20.97;;;;;;;7.42;58.51;101526.31;1780121;79;25718;-59
2022/04/15 06:40:49;;;;;;;62.30;20.95;;;;;;;7.54;58.51;101525.16;1780813;79;25780;-59
2022/04/15 06:43:16;;;;;;;55.90;22.62;;;;;;;7.67;58.45;101524.74;1752111;81;26265;-58
2022/04/15 06:45:44;;;;;;;57.43;20.02;;;;;;;7.79;58.42;101525.80;1779465;80;25833;-58
2022/04/15 06:48:11;;;;;;;56.58;18.60;;;;;;;7.94;58.44;101519.89;1780275;79;27479;-58
2022/04/15 06:50:37;;;;;;;52.98;15.08;;;;;;;8.08;58.29;101525.69;1779623;79;26085;-59
2022/04/15 06:53:05;;;;;;;51.13;14.83;;;;;;;8.21;57.82;101517.22;1780015;80;25816;-59
2022/04/15 06:55:32;;;;;;;39.20;15.05;;;;;;;8.33;57.55;101518.21;1780419;80;26048;-59
2022/04/15 06:57:59;;;;;;;39.48;15.50;;;;;;;8.48;57.41;101517.70;1777557;80;26063;-59
2022/04/15 07:00:26;;;;;;;57.40;15.08;;;;;;;8.62;57.01;101518.09;1770920;79;27532;-59
2022/04/15 07:02:53;;;;;;;47.10;16.30;;;;;;;8.76;56.94;101510.44;1772847;80;25906;-59
2022/04/15 07:05:20;;;;;;;47.17;16.75;;;;;;;8.88;56.87;101510.06;1779519;80;25532;-60
2022/04/15 07:07:47;;;;;;;51.77;16.45;;;;;;;9.03;56.62;101513.51;1780870;80;27115;-60
2022/04/15 07:10:14;;;;;;;40.43;14.00;;;;;;;9.27;55.46;101503.33;1781144;80;25720;-60
2022/04/15 07:12:40;;;;;;;28.10;13.53;;;;;;;9.44;55.49;101493.57;1767236;80;27470;-60
2022/04/15 07:15:08;;;;;;;30.48;12.53;;;;;;;9.60;55.32;101498.70;1779666;80;25753;-60
2022/04/15 07:17:35;;;;;;;38.33;12.53;;;;;;;9.76;55.29;101491.72;1781353;80;25719;-59
2022/04/15 07:20:04;;;;;;;28.92;13.20;;;;;;;9.90;55.14;101492.52;1781054;79;27040;-59
2022/04/15 07:22:30;;;;;;;34.88;12.65;;;;;;;10.08;53.87;101491.64;1777516;80;25801;-59
2022/04/15 07:24:57;;;;;;;29.05;12.60;;;;;;;10.26;53.81;101487.56;1780002;80;27732;-59
2022/04/15 07:27:23;;;;;;;27.65;11.33;;;;;;;10.42;53.71;101489.11;1777226;80;26191;-59
2022/04/15 07:29:50;;;;;;;24.70;10.72;;;;;;;10.58;53.51;101488.79;1778395;80;25643;-60
2022/04/15 07:32:21;;;;;;;37.08;12.63;;;;;;;10.76;52.72;101486.48;1781305;80;26094;-60
2022/04/15 07:34:50;;;;;;;40.60;11.38;;;;;;;10.91;52.47;101477.20;1781982;79;26536;-59
2022/04/15 07:37:18;;;;;;;25.80;10.80;;;;;;;11.09;52.56;101475.38;1777254;80;27453;-60
2022/04/15 07:39:45;;;;;;;24.92;9.98;;;;;;;11.23;51.58;101475.14;1774168;80;25842;-60
2022/04/15 07:42:12;;;;;;;23.40;10.15;;;;;;;11.41;49.39;101473.28;1741396;80;25751;-59
2022/04/15 07:44:41;;;;;;;34.15;9.83;;;;;;;11.57;50.04;101471.05;1718600;82;26218;-60
2022/04/15 07:47:09;;;;;;;19.85;8.68;;;;;;;11.76;47.48;101468.19;1736171;82;25739;-60
2022/04/15 07:49:37;;;;;;;24.43;8.98;;;;;;;11.91;47.60;101471.45;1778339;80;28123;-60
2022/04/15 07:52:05;;;;;;;20.25;8.13;;;;;;;12.04;48.16;101468.63;1781958;80;25500;-60
2022/04/15 07:54:33;;;;;;;24.77;6.80;;;;;;;12.20;47.16;101462.30;1787519;79;25727;-60
2022/04/15 07:57:00;;;;;;;22.52;8.25;;;;;;;12.47;45.40;101456.87;1785122;78;26079;-60
2022/04/15 07:59:29;;;;;;;19.90;10.35;;;;;;;12.65;45.24;101450.37;1781831;80;25715;-60
2022/04/15 08:01:58;;;;;;;21.57;9.80;;;;;;;12.87;43.56;101451.20;1783544;79;28109;-60
2022/04/15 08:04:26;;;;;;;29.00;9.28;;;;;;;13.09;44.59;101445.24;1782683;79;25745;-60
2022/04/15 08:06:53;;;;;;;24.20;8.45;;;;;;;13.26;44.56;101445.97;1783319;79;25500;-60
2022/04/15 08:09:21;;;;;;;18.65;8.05;;;;;;;13.45;43.80;101445.20;1751137;81;26090;-60
2022/04/15 08:11:49;;;;;;;18.65;8.40;;;;;;;13.66;42.98;101436.61;1750743;81;25651;-60
2022/04/15 08:14:16;;;;;;;24.98;8.40;;;;;;;13.83;42.53;101437.78;1751042;81;28534;-60
2022/04/15 08:16:43;;;;;;;21.42;8.45;;;;;;;13.96;42.68;101434.28;1753488;81;25538;-60
2022/04/15 08:19:10;;;;;;;25.10;9.50;;;;;;;14.14;42.57;101428.16;1753951;81;25795;-60
2022/04/15 08:21:37;;;;;;;24.65;9.45;;;;;;;14.29;42.06;101425.39;1749242;81;26827;-60
2022/04/15 08:24:06;;;;;;;21.82;9.25;;;;;;;14.48;41.16;101423.13;1742434;81;25791;-60
2022/04/15 08:26:33;;;;;;;19.17;9.35;;;;;;;14.67;41.41;101414.13;1756712;81;28146;-60
2022/04/15 08:29:01;;;;;;;33.53;9.83;;;;;;;14.89;40.60;101410.70;1753870;81;25688;-60
2022/04/15 08:31:27;;;;;;;24.85;10.00;;;;;;;15.13;40.09;101414.72;1754097;81;25770;-60
2022/04/15 08:33:54;;;;;;;28.15;8.20;;;;;;;15.37;40.64;101405.19;1754058;81;26148;-60
2022/04/15 08:36:21;;;;;;;28.07;8.83;;;;;;;15.59;38.64;101397.97;1734441;81;25798;-60
2022/04/15 08:38:48;;;;;;;31.65;8.35;;;;;;;15.81;37.71;101386.31;1707527;83;28298;-60
2022/04/15 08:41:14;;;;;;;21.23;8.90;;;;;;;16.09;36.27;101384.38;1707340;84;25864;-60
2022/04/15 08:43:42;;;;;;;19.00;8.25;;;;;;;16.28;37.21;101383.31;1707572;82;25840;-60
2022/04/15 08:46:12;;;;;;;25.80;7.95;;;;;;;16.49;36.11;101381.27;1707702;82;26182;-60
2022/04/15 08:48:40;;;;;;;17.65;7.92;;;;;;;16.68;35.65;101377.45;1707714;84;25756;-60
2022/04/15 08:51:09;;;;;;;17.40;7.65;;;;;;;16.88;35.39;101375.34;1707382;82;28354;-60
2022/04/15 08:53:37;;;;;;;19.67;7.10;;;;;;;17.05;33.92;101364.91;1707325;84;25897;-60
2022/04/15 08:56:05;;;;;;;21.57;7.65;;;;;;;17.24;34.05;101367.00;1708285;83;25791;-60
2022/04/15 08:58:32;;;;;;;24.52;7.60;;;;;;;17.45;35.03;101366.53;1707475;83;26394;-60
2022/04/15 09:00:59;;;;;;;18.48;6.80;;;;;;;17.71;33.00;101364.19;1707884;84;25828;-59
2022/04/15 09:03:26;;;;;;;24.30;7.25;;;;;;;17.96;32.09;101354.72;1707493;82;27713;-60
2022/04/15 09:05:54;;;;;;;24.55;7.33;;;;;;;18.23;31.53;101352.66;1707295;84;25821;-60
2022/04/15 09:08:21;;;;;;;20.95;6.67;;;;;;;18.48;31.02;101355.31;1707263;82;25457;-60
2022/04/15 09:10:59;;;;;;;20.80;6.40;;;;;;;18.71;31.58;101346.72;1707530;84;26148;-60
2022/04/15 09:13:34;;;;;;;21.45;7.15;;;;;;;19.00;30.83;101342.55;1706015;82;25821;-60
2022/04/15 09:16:01;;;;;;;30.72;6.47;;;;;;;19.32;28.77;101341.17;1690394;83;27531;-60
2022/04/15 09:18:37;;;;;;;17.85;6.35;;;;;;;19.62;30.40;101335.33;1668467;84;25451;-59
2022/04/15 09:21:19;;;;;;;16.32;6.80;;;;;;;19.97;28.21;101329.45;1668533;84;25767;-60
2022/04/15 09:23:49;;;;;;;14.45;5.95;;;;;;;20.29;28.05;101326.92;1680062;85;26326;-59
2022/04/15 09:26:17;;;;;;;21.00;6.58;;;;;;;20.69;28.25;101320.30;1738619;82;25719;-59
2022/04/15 09:28:47;;;;;;;12.50;5.78;;;;;;;21.15;27.24;101321.42;1737881;81;27302;-60
2022/04/15 09:31:17;;;;;;;9.35;3.77;;;;;;;21.70;25.78;101319.59;1738440;81;25666;-60
2022/04/15 09:33:59;;;;;;;10.53;4.10;;;;;;;22.39;24.41;101315.25;1738545;81;25502;-60
2022/04/15 09:36:38;;;;;;;17.42;4.03;;;;;;;23.13;24.94;101312.86;1738585;81;26303;-60
2022/04/15 09:39:14;;;;;;;8.38;3.45;;;;;;;24.02;23.46;101318.31;1737780;82;25703;-60
2022/04/15 09:41:51;;;;;;;16.77;4.08;;;;;;;24.64;21.59;101305.59;1737783;82;27489;-60
2022/04/15 09:44:20;;;;;;;10.70;4.10;;;;;;;25.19;22.50;101299.64;1696112;83;25692;-59
2022/04/15 09:46:47;;;;;;;16.02;3.33;;;;;;;25.80;22.20;101290.42;1738345;82;25438;-60
2022/04/15 09:49:14;;;;;;;7.42;3.10;;;;;;;26.47;19.71;101295.83;1734598;82;26105;-61
2022/04/15 09:51:52;;;;;;;10.50;3.40;;;;;;;26.87;19.96;101291.23;1737884;81;26229;-60
2022/04/15 09:54:26;;;;;;;11.20;4.47;;;;;;;27.31;20.52;101284.97;1700747;82;27456;-60
2022/04/15 09:57:00;;;;;;;11.12;3.37;;;;;;;27.96;20.23;101289.35;1738623;82;25757;-61
2022/04/15 09:59:29;;;;;;;9.65;3.77;;;;;;;28.45;18.95;101282.17;1738677;81;25711;-60
2022/04/15 10:02:05;;;;;;;10.63;4.00;;;;;;;28.77;18.28;101275.38;1737711;81;26065;-61
2022/04/15 10:04:33;;;;;;;12.75;4.33;;;;;;;29.12;18.55;101266.93;1736941;82;25739;-61
2022/04/15 10:07:08;;;;;;;6.72;3.25;;;;;;;29.59;17.33;101274.13;1723637;82;27510;-61
2022/04/15 10:09:38;;;;;;;19.15;4.20;;;;;;;29.82;17.36;101269.48;1736615;81;25771;-60
2022/04/15 10:12:07;;;;;;;11.00;3.90;;;;;;;30.07;16.06;101269.06;1738938;81;25471;-61
2022/04/15 10:14:35;;;;;;;14.50;4.05;;;;;;;30.08;16.08;101258.27;1738256;82;26168;-61
2022/04/15 10:17:04;;;;;;;11.43;4.35;;;;;;;30.25;16.23;101252.69;1737172;81;25735;-61
2022/04/15 10:19:33;;;;;;;8.55;3.70;;;;;;;30.68;16.21;101247.95;1737087;82;27489;-61
2022/04/15 10:22:01;;;;;;;18.67;4.35;;;;;;;31.02;15.29;101242.19;1737532;82;25864;-61
2022/04/15 10:24:29;;;;;;;6.87;3.40;;;;;;;31.30;16.21;101241.66;1779218;80;25804;-61
2022/04/15 10:27:00;;;;;;;7.33;2.98;;;;;;;31.76;15.64;101238.41;1780303;80;26194;-61
2022/04/15 10:29:27;;;;;;;8.00;3.75;;;;;;;32.13;14.49;101229.16;1769095;80;25915;-61
2022/04/15 10:31:55;;;;;;;6.12;3.45;;;;;;;31.88;13.75;101228.46;1773843;80;27496;-61
2022/04/15 10:34:23;;;;;;;12.15;3.70;;;;;;;31.98;14.58;101222.95;1780836;79;26540;-61
2022/04/15 10:36:52;;;;;;;9.35;3.70;;;;;;;32.36;13.38;101223.73;1779508;80;25806;-61
2022/04/15 10:39:26;;;;;;;10.10;2.98;;;;;;;32.40;12.84;101215.12;1761607;80;26141;-61
2022/04/15 10:41:57;;;;;;;7.05;3.33;;;;;;;32.13;13.46;101204.12;1779830;80;25960;-60
2022/04/15 10:44:37;;;;;;;10.68;3.80;;;;;;;32.58;13.07;101215.74;1739932;81;27680;-61
2022/04/15 10:47:23;;;;;;;7.30;3.47;;;;;;;32.83;11.88;101214.15;1778848;80;25806;-61
2022/04/15 10:50:06;;;;;;;6.20;2.98;;;;;;;32.90;12.39;101201.60;1778890;79;26092;-61
2022/04/15 10:52:35;;;;;;;9.00;3.20;;;;;;;33.04;12.73;101195.50;1780717;79;26086;-61
2022/04/15 10:55:06;;;;;;;9.55;3.52;;;;;;;33.24;12.14;101198.84;1728619;81;25516;-61
2022/04/15 10:57:43;;;;;;;12.40;3.67;;;;;;;33.01;12.38;101197.44;1755600;81;28167;-61
2022/04/15 11:03:23;;;;;;;11.60;3.95;;;;;;;33.71;12.75;101183.75;1707725;83;25536;-61
2022/04/15 11:05:57;;;;;;;11.05;4.00;;;;;;;33.99;13.24;101178.67;1698618;83;26095;-61
2022/04/15 11:08:27;;;;;;;10.93;4.30;;;;;;;34.42;12.63;101169.00;1679023;84;25790;-61
2022/04/15 11:10:59;;;;;;;12.47;3.90;;;;;;;34.62;12.56;101166.09;1678875;84;27524;-61
2022/04/15 11:13:40;;;;;;;11.55;4.28;;;;;;;34.82;12.01;101167.62;1679126;84;26333;-61
2022/04/15 11:16:11;;;;;;;10.70;4.10;;;;;;;34.91;12.09;101161.71;1707552;84;26519;-61
2022/04/15 11:18:55;;;;;;;9.38;4.62;;;;;;;35.15;11.68;101152.01;1709105;83;26199;-61
2022/04/15 11:21:30;;;;;;;9.48;4.03;;;;;;;35.23;11.35;101156.14;1708895;83;25839;-61
2022/04/15 11:24:04;;;;;;;11.85;4.33;;;;;;;35.25;11.11;101149.12;1732784;82;27509;-61
2022/04/15 11:26:34;;;;;;;6.72;3.55;;;;;;;34.93;11.29;101138.50;1737127;82;25840;-62